EJU572R LFPO-LFBO
Flight info
| Callsign | EJU572R |
|---|---|
| Flight time | 0h 57m |
| Altitude | 35000 |
| Route | ERIXU DCT ETAMO DCT GUERE DCT NARAK |
| Aircraft | A320/M-SDE2E3FGHIJ1RWXYZ/LB1 |
Departure
| Time | 2026-05-07 21:47 |
|---|---|
| Airport | Paris-Orly Airport (LFPO) |
Arrival
| Time | 2026-05-07 22:44 |
|---|---|
| Airport | Toulouse-Blagnac Airport (LFBO) |
| Time | Latitude | Longitude | Altitude | Speed | Heading |
|---|---|---|---|---|---|
| 2026-05-07 21:28 | 48.72749 | 2.35788 | 295 ft | 0 kts | 172° |
| 2026-05-07 21:40 | 48.72765 | 2.35784 | 300 ft | 4 kts | 172° |
| 2026-05-07 21:41 | 48.72792 | 2.35779 | 300 ft | 4 kts | 172° |
| 2026-05-07 21:41 | 48.72819 | 2.35773 | 299 ft | 4 kts | 172° |
| 2026-05-07 21:41 | 48.72838 | 2.35770 | 298 ft | 0 kts | 172° |
| 2026-05-07 21:43 | 48.72832 | 2.35771 | 296 ft | 5 kts | 172° |
| 2026-05-07 21:43 | 48.72793 | 2.35739 | 298 ft | 9 kts | 237° |
| 2026-05-07 21:43 | 48.72769 | 2.35628 | 296 ft | 12 kts | 254° |
| 2026-05-07 21:44 | 48.72736 | 2.35503 | 298 ft | 14 kts | 217° |
| 2026-05-07 21:44 | 48.72636 | 2.35524 | 295 ft | 16 kts | 164° |
| 2026-05-07 21:44 | 48.72517 | 2.35574 | 295 ft | 19 kts | 164° |
| 2026-05-07 21:44 | 48.72388 | 2.35627 | 299 ft | 13 kts | 164° |
| 2026-05-07 21:45 | 48.72293 | 2.35616 | 298 ft | 15 kts | 199° |
| 2026-05-07 21:45 | 48.72179 | 2.35620 | 295 ft | 18 kts | 166° |
| 2026-05-07 21:45 | 48.72057 | 2.35696 | 295 ft | 20 kts | 135° |
| 2026-05-07 21:45 | 48.71986 | 2.35858 | 299 ft | 12 kts | 134° |
| 2026-05-07 21:46 | 48.71954 | 2.35924 | 296 ft | 7 kts | 84° |
| 2026-05-07 21:46 | 48.71989 | 2.36109 | 300 ft | 46 kts | 75° |
| 2026-05-07 21:46 | 48.72138 | 2.36925 | 297 ft | 112 kts | 74° |
| 2026-05-07 21:46 | 48.72395 | 2.38323 | 300 ft | 161 kts | 74° |
| 2026-05-07 21:47 | 48.72719 | 2.40039 | 757 ft | 170 kts | 74° |
| 2026-05-07 21:47 | 48.73041 | 2.41758 | 1506 ft | 169 kts | 75° |
| 2026-05-07 21:47 | 48.73351 | 2.43469 | 2290 ft | 168 kts | 75° |
| 2026-05-07 21:47 | 48.73669 | 2.45175 | 2957 ft | 169 kts | 76° |
| 2026-05-07 21:48 | 48.73975 | 2.46928 | 3454 ft | 180 kts | 77° |
| 2026-05-07 21:48 | 48.74101 | 2.48934 | 3717 ft | 202 kts | 87° |
| 2026-05-07 21:48 | 48.74185 | 2.51198 | 3946 ft | 228 kts | 87° |
| 2026-05-07 21:48 | 48.74274 | 2.53724 | 4309 ft | 252 kts | 87° |
| 2026-05-07 21:49 | 48.74279 | 2.56445 | 4967 ft | 263 kts | 100° |
| 2026-05-07 21:49 | 48.73469 | 2.58936 | 5670 ft | 272 kts | 134° |
| 2026-05-07 21:49 | 48.71851 | 2.60428 | 6458 ft | 277 kts | 160° |
| 2026-05-07 21:49 | 48.69985 | 2.61207 | 7261 ft | 280 kts | 169° |
| 2026-05-07 21:50 | 48.68070 | 2.61761 | 8174 ft | 281 kts | 171° |
| 2026-05-07 21:50 | 48.66132 | 2.61950 | 9023 ft | 281 kts | 189° |
| 2026-05-07 21:50 | 48.64256 | 2.61178 | 9889 ft | 280 kts | 205° |
| 2026-05-07 21:50 | 48.62588 | 2.59672 | 10675 ft | 280 kts | 220° |
| 2026-05-07 21:51 | 48.61226 | 2.57518 | 11218 ft | 291 kts | 230° |
| 2026-05-07 21:51 | 48.59865 | 2.55085 | 11405 ft | 315 kts | 230° |
| 2026-05-07 21:51 | 48.58457 | 2.52538 | 11897 ft | 325 kts | 230° |
| 2026-05-07 21:51 | 48.56999 | 2.49897 | 12535 ft | 331 kts | 230° |
| 2026-05-07 21:52 | 48.55522 | 2.47217 | 13246 ft | 334 kts | 230° |
| 2026-05-07 21:52 | 48.54033 | 2.44499 | 13931 ft | 338 kts | 230° |
| 2026-05-07 21:52 | 48.52430 | 2.41896 | 14564 ft | 340 kts | 221° |
| 2026-05-07 21:52 | 48.50507 | 2.39814 | 15204 ft | 342 kts | 211° |
| 2026-05-07 21:53 | 48.48445 | 2.38004 | 15850 ft | 344 kts | 211° |
| 2026-05-07 21:53 | 48.46372 | 2.36178 | 16485 ft | 347 kts | 211° |
| 2026-05-07 21:53 | 48.44280 | 2.34327 | 17115 ft | 349 kts | 211° |
| 2026-05-07 21:53 | 48.42180 | 2.32467 | 17737 ft | 352 kts | 211° |
| 2026-05-07 21:54 | 48.40060 | 2.30593 | 18352 ft | 354 kts | 211° |
| 2026-05-07 21:54 | 48.37923 | 2.28710 | 18892 ft | 357 kts | 211° |
| 2026-05-07 21:54 | 48.36501 | 2.27461 | 19239 ft | 358 kts | 211° |
| 2026-05-07 21:54 | 48.34340 | 2.25568 | 19758 ft | 361 kts | 211° |
| 2026-05-07 21:55 | 48.32148 | 2.23702 | 20270 ft | 364 kts | 206° |
| 2026-05-07 21:55 | 48.29770 | 2.22364 | 20761 ft | 368 kts | 195° |
| 2026-05-07 21:55 | 48.27231 | 2.21775 | 21251 ft | 372 kts | 184° |
| 2026-05-07 21:55 | 48.24637 | 2.21993 | 21733 ft | 377 kts | 173° |
| 2026-05-07 21:56 | 48.22042 | 2.22635 | 22223 ft | 379 kts | 172° |
| 2026-05-07 21:56 | 48.19431 | 2.23278 | 22696 ft | 382 kts | 172° |
| 2026-05-07 21:56 | 48.16807 | 2.23922 | 23210 ft | 383 kts | 172° |
| 2026-05-07 21:56 | 48.14165 | 2.24568 | 23675 ft | 385 kts | 172° |
| 2026-05-07 21:57 | 48.11513 | 2.25212 | 24056 ft | 387 kts | 173° |
| 2026-05-07 21:57 | 48.08845 | 2.25843 | 24436 ft | 389 kts | 174° |
| 2026-05-07 21:57 | 48.06140 | 2.26120 | 24805 ft | 390 kts | 179° |
| 2026-05-07 21:57 | 48.03418 | 2.26290 | 25176 ft | 392 kts | 179° |
| 2026-05-07 21:58 | 48.00685 | 2.26463 | 25543 ft | 395 kts | 179° |
| 2026-05-07 21:58 | 47.97933 | 2.26637 | 25904 ft | 397 kts | 179° |
| 2026-05-07 21:58 | 47.95170 | 2.26812 | 26273 ft | 398 kts | 179° |
| 2026-05-07 21:58 | 47.92393 | 2.26988 | 26631 ft | 400 kts | 179° |
| 2026-05-07 21:59 | 47.89601 | 2.27165 | 26983 ft | 403 kts | 179° |
| 2026-05-07 21:59 | 47.86797 | 2.27344 | 27323 ft | 405 kts | 179° |
| 2026-05-07 21:59 | 47.83974 | 2.27527 | 27666 ft | 407 kts | 179° |
| 2026-05-07 21:59 | 47.81140 | 2.27710 | 27991 ft | 409 kts | 179° |
| 2026-05-07 22:00 | 47.78292 | 2.27891 | 28324 ft | 411 kts | 180° |
| 2026-05-07 22:00 | 47.75428 | 2.28071 | 28640 ft | 413 kts | 180° |
| 2026-05-07 22:00 | 47.72549 | 2.28251 | 28959 ft | 415 kts | 180° |
| 2026-05-07 22:00 | 47.69654 | 2.28433 | 29285 ft | 417 kts | 180° |
| 2026-05-07 22:01 | 47.66746 | 2.28612 | 29611 ft | 419 kts | 180° |
| 2026-05-07 22:01 | 47.63825 | 2.28793 | 29905 ft | 421 kts | 180° |
| 2026-05-07 22:01 | 47.60889 | 2.28979 | 30187 ft | 424 kts | 180° |
| 2026-05-07 22:01 | 47.57937 | 2.29167 | 30436 ft | 425 kts | 180° |
| 2026-05-07 22:02 | 47.54975 | 2.29352 | 30677 ft | 427 kts | 180° |
| 2026-05-07 22:02 | 47.51999 | 2.29535 | 30910 ft | 429 kts | 180° |
| 2026-05-07 22:02 | 47.49014 | 2.29720 | 31197 ft | 429 kts | 180° |
| 2026-05-07 22:02 | 47.46039 | 2.29909 | 31546 ft | 428 kts | 180° |
| 2026-05-07 22:03 | 47.43070 | 2.30099 | 31897 ft | 427 kts | 180° |
| 2026-05-07 22:03 | 47.40106 | 2.30289 | 32242 ft | 426 kts | 180° |
| 2026-05-07 22:03 | 47.37190 | 2.30474 | 32585 ft | 425 kts | 180° |
| 2026-05-07 22:03 | 47.34242 | 2.30659 | 32909 ft | 424 kts | 180° |
| 2026-05-07 22:04 | 47.31300 | 2.30843 | 33260 ft | 423 kts | 180° |
| 2026-05-07 22:04 | 47.28369 | 2.31028 | 33606 ft | 422 kts | 180° |
| 2026-05-07 22:04 | 47.25442 | 2.31211 | 33957 ft | 421 kts | 180° |
| 2026-05-07 22:04 | 47.22520 | 2.31389 | 34248 ft | 420 kts | 180° |
| 2026-05-07 22:05 | 47.19603 | 2.31565 | 34501 ft | 420 kts | 180° |
| 2026-05-07 22:05 | 47.16682 | 2.31741 | 34736 ft | 420 kts | 180° |
| 2026-05-07 22:05 | 47.13764 | 2.31918 | 34937 ft | 420 kts | 180° |
| 2026-05-07 22:05 | 47.10845 | 2.32094 | 35029 ft | 418 kts | 180° |
| 2026-05-07 22:06 | 47.05044 | 2.32441 | 35045 ft | 417 kts | 180° |
| 2026-05-07 22:06 | 46.99248 | 2.32801 | 35045 ft | 417 kts | 180° |
| 2026-05-07 22:07 | 46.93455 | 2.33168 | 35039 ft | 417 kts | 180° |
| 2026-05-07 22:07 | 46.87664 | 2.33525 | 35040 ft | 416 kts | 180° |
| 2026-05-07 22:08 | 46.81942 | 2.32939 | 35036 ft | 411 kts | 196° |
| 2026-05-07 22:08 | 46.76430 | 2.30800 | 35025 ft | 410 kts | 197° |
| 2026-05-07 22:09 | 46.70912 | 2.28686 | 35022 ft | 410 kts | 197° |
| 2026-05-07 22:09 | 46.65393 | 2.26577 | 35023 ft | 410 kts | 197° |
| 2026-05-07 22:10 | 46.59876 | 2.24466 | 35023 ft | 410 kts | 197° |
| 2026-05-07 22:10 | 46.54360 | 2.22358 | 35016 ft | 410 kts | 197° |
| 2026-05-07 22:11 | 46.48844 | 2.20247 | 35019 ft | 410 kts | 197° |
| 2026-05-07 22:11 | 46.43326 | 2.18151 | 35020 ft | 410 kts | 197° |
| 2026-05-07 22:12 | 46.37814 | 2.16065 | 35022 ft | 410 kts | 197° |
| 2026-05-07 22:12 | 46.32296 | 2.13974 | 35016 ft | 410 kts | 197° |
| 2026-05-07 22:13 | 46.26782 | 2.11885 | 35019 ft | 410 kts | 197° |
| 2026-05-07 22:13 | 46.21267 | 2.09805 | 35021 ft | 410 kts | 196° |
| 2026-05-07 22:14 | 46.15693 | 2.08331 | 35019 ft | 411 kts | 189° |
| 2026-05-07 22:14 | 46.10018 | 2.07281 | 35012 ft | 411 kts | 189° |
| 2026-05-07 22:15 | 46.04337 | 2.06227 | 35014 ft | 412 kts | 189° |
| 2026-05-07 22:15 | 45.98653 | 2.05172 | 35013 ft | 412 kts | 189° |
| 2026-05-07 22:16 | 45.92965 | 2.04119 | 35001 ft | 412 kts | 189° |
| 2026-05-07 22:16 | 45.87267 | 2.03073 | 35006 ft | 413 kts | 189° |
| 2026-05-07 22:17 | 45.81562 | 2.02030 | 35005 ft | 413 kts | 189° |
| 2026-05-07 22:17 | 45.75852 | 2.00984 | 35010 ft | 414 kts | 189° |
| 2026-05-07 22:18 | 45.67282 | 1.99421 | 35010 ft | 414 kts | 189° |
| 2026-05-07 22:19 | 45.61567 | 1.98371 | 35011 ft | 414 kts | 189° |
| 2026-05-07 22:19 | 45.55850 | 1.97328 | 35003 ft | 414 kts | 189° |
| 2026-05-07 22:20 | 45.50135 | 1.96300 | 35011 ft | 414 kts | 188° |
| 2026-05-07 22:20 | 45.44430 | 1.95268 | 35008 ft | 413 kts | 189° |
| 2026-05-07 22:21 | 45.38725 | 1.94237 | 35011 ft | 413 kts | 189° |
| 2026-05-07 22:21 | 45.33027 | 1.93205 | 35021 ft | 413 kts | 189° |
| 2026-05-07 22:22 | 45.27337 | 1.92178 | 35014 ft | 412 kts | 189° |
| 2026-05-07 22:22 | 45.21647 | 1.91154 | 35011 ft | 412 kts | 189° |
| 2026-05-07 22:23 | 45.15963 | 1.90136 | 34994 ft | 412 kts | 189° |
| 2026-05-07 22:23 | 45.10280 | 1.89121 | 34994 ft | 411 kts | 189° |
| 2026-05-07 22:24 | 45.04600 | 1.88108 | 34991 ft | 411 kts | 188° |
| 2026-05-07 22:24 | 44.98904 | 1.87094 | 34975 ft | 414 kts | 189° |
| 2026-05-07 22:25 | 44.93217 | 1.86078 | 34971 ft | 416 kts | 189° |
| 2026-05-07 22:25 | 44.87467 | 1.85051 | 34975 ft | 417 kts | 189° |
| 2026-05-07 22:26 | 44.81707 | 1.84033 | 34978 ft | 418 kts | 189° |
| 2026-05-07 22:26 | 44.75937 | 1.83016 | 34978 ft | 418 kts | 189° |
| 2026-05-07 22:27 | 44.70160 | 1.81998 | 34981 ft | 418 kts | 189° |
| 2026-05-07 22:27 | 44.64383 | 1.80981 | 34983 ft | 419 kts | 189° |
| 2026-05-07 22:28 | 44.58598 | 1.79967 | 34978 ft | 419 kts | 189° |
| 2026-05-07 22:28 | 44.52821 | 1.78954 | 34985 ft | 418 kts | 189° |
| 2026-05-07 22:29 | 44.47048 | 1.77950 | 34989 ft | 418 kts | 189° |
| 2026-05-07 22:29 | 44.41276 | 1.76945 | 34992 ft | 418 kts | 189° |
| 2026-05-07 22:30 | 44.35511 | 1.75933 | 34969 ft | 417 kts | 189° |
| 2026-05-07 22:30 | 44.32625 | 1.75403 | 34173 ft | 422 kts | 192° |
| 2026-05-07 22:30 | 44.29772 | 1.74326 | 32997 ft | 428 kts | 202° |
| 2026-05-07 22:30 | 44.27092 | 1.72496 | 31963 ft | 431 kts | 213° |
| 2026-05-07 22:31 | 44.24595 | 1.70151 | 30954 ft | 435 kts | 215° |
| 2026-05-07 22:31 | 44.22087 | 1.67756 | 29935 ft | 439 kts | 215° |
| 2026-05-07 22:31 | 44.19558 | 1.65342 | 28767 ft | 442 kts | 215° |
| 2026-05-07 22:31 | 44.17017 | 1.62917 | 27785 ft | 442 kts | 215° |
| 2026-05-07 22:32 | 44.14492 | 1.60508 | 26979 ft | 438 kts | 215° |
| 2026-05-07 22:32 | 44.11988 | 1.58120 | 26200 ft | 434 kts | 215° |
| 2026-05-07 22:32 | 44.09506 | 1.55753 | 25433 ft | 431 kts | 215° |
| 2026-05-07 22:32 | 44.07044 | 1.53406 | 24674 ft | 427 kts | 215° |
| 2026-05-07 22:33 | 44.04600 | 1.51081 | 23966 ft | 424 kts | 215° |
| 2026-05-07 22:33 | 44.02171 | 1.48777 | 23251 ft | 421 kts | 215° |
| 2026-05-07 22:33 | 43.99746 | 1.46524 | 22469 ft | 418 kts | 211° |
| 2026-05-07 22:33 | 43.97170 | 1.44865 | 21468 ft | 411 kts | 199° |
| 2026-05-07 22:34 | 43.94397 | 1.43994 | 20251 ft | 407 kts | 191° |
| 2026-05-07 22:34 | 43.91612 | 1.43346 | 19099 ft | 404 kts | 191° |
| 2026-05-07 22:34 | 43.88857 | 1.42708 | 17965 ft | 399 kts | 190° |
| 2026-05-07 22:34 | 43.86123 | 1.42160 | 16774 ft | 395 kts | 184° |
| 2026-05-07 22:35 | 43.83400 | 1.42411 | 15680 ft | 392 kts | 169° |
| 2026-05-07 22:35 | 43.80837 | 1.43617 | 14626 ft | 389 kts | 154° |
| 2026-05-07 22:35 | 43.78616 | 1.45681 | 13921 ft | 378 kts | 142° |
| 2026-05-07 22:35 | 43.76636 | 1.47868 | 13792 ft | 350 kts | 143° |
| 2026-05-07 22:36 | 43.74779 | 1.49865 | 13656 ft | 327 kts | 143° |
| 2026-05-07 22:36 | 43.73022 | 1.51733 | 13261 ft | 314 kts | 143° |
| 2026-05-07 22:36 | 43.71302 | 1.53554 | 12691 ft | 309 kts | 143° |
| 2026-05-07 22:36 | 43.69611 | 1.55348 | 12100 ft | 304 kts | 143° |
| 2026-05-07 22:37 | 43.67942 | 1.57124 | 11484 ft | 301 kts | 143° |
| 2026-05-07 22:37 | 43.66257 | 1.58921 | 10406 ft | 313 kts | 143° |
| 2026-05-07 22:37 | 43.64520 | 1.60780 | 9497 ft | 317 kts | 143° |
| 2026-05-07 22:37 | 43.62658 | 1.62366 | 8698 ft | 312 kts | 158° |
| 2026-05-07 22:38 | 43.60580 | 1.63099 | 7942 ft | 308 kts | 175° |
| 2026-05-07 22:38 | 43.58463 | 1.62979 | 7199 ft | 303 kts | 187° |
| 2026-05-07 22:38 | 43.56411 | 1.62636 | 6905 ft | 286 kts | 186° |
| 2026-05-07 22:38 | 43.54491 | 1.62314 | 6552 ft | 273 kts | 186° |
| 2026-05-07 22:39 | 43.52639 | 1.62005 | 6217 ft | 259 kts | 186° |
| 2026-05-07 22:39 | 43.50915 | 1.61692 | 6035 ft | 242 kts | 192° |
| 2026-05-07 22:39 | 43.49377 | 1.60860 | 5647 ft | 236 kts | 212° |
| 2026-05-07 22:39 | 43.48153 | 1.59372 | 5229 ft | 235 kts | 231° |
| 2026-05-07 22:40 | 43.47363 | 1.57412 | 4831 ft | 235 kts | 250° |
| 2026-05-07 22:40 | 43.47137 | 1.55197 | 4399 ft | 236 kts | 274° |
| 2026-05-07 22:40 | 43.47597 | 1.53048 | 3966 ft | 236 kts | 300° |
| 2026-05-07 22:40 | 43.48664 | 1.51391 | 3653 ft | 229 kts | 323° |
| 2026-05-07 22:41 | 43.49923 | 1.50092 | 3370 ft | 223 kts | 323° |
| 2026-05-07 22:41 | 43.51150 | 1.48825 | 3065 ft | 219 kts | 323° |
| 2026-05-07 22:41 | 43.52345 | 1.47590 | 2806 ft | 209 kts | 324° |
| 2026-05-07 22:41 | 43.53497 | 1.46398 | 2510 ft | 205 kts | 324° |
| 2026-05-07 22:42 | 43.54598 | 1.45256 | 2244 ft | 196 kts | 324° |
| 2026-05-07 22:42 | 43.55318 | 1.44509 | 2082 ft | 187 kts | 324° |
| 2026-05-07 22:42 | 43.56642 | 1.43135 | 1752 ft | 173 kts | 325° |
| 2026-05-07 22:42 | 43.57589 | 1.42152 | 1522 ft | 168 kts | 325° |
| 2026-05-07 22:43 | 43.58509 | 1.41198 | 1296 ft | 164 kts | 324° |
| 2026-05-07 22:43 | 43.59408 | 1.40264 | 1076 ft | 160 kts | 324° |
| 2026-05-07 22:43 | 43.60294 | 1.39345 | 865 ft | 159 kts | 324° |
| 2026-05-07 22:43 | 43.61177 | 1.38421 | 647 ft | 159 kts | 323° |
| 2026-05-07 22:44 | 43.61773 | 1.37802 | 521 ft | 159 kts | 323° |
| 2026-05-07 22:44 | 43.62579 | 1.36966 | 488 ft | 122 kts | 323° |
| 2026-05-07 22:44 | 43.63117 | 1.36407 | 488 ft | 72 kts | 323° |
| 2026-05-07 22:44 | 43.63397 | 1.36118 | 491 ft | 39 kts | 322° |
| 2026-05-07 22:45 | 43.63606 | 1.35897 | 489 ft | 37 kts | 323° |
| 2026-05-07 22:45 | 43.63747 | 1.35817 | 485 ft | 18 kts | 30° |
| 2026-05-07 22:45 | 43.63817 | 1.35957 | 490 ft | 17 kts | 85° |
| 2026-05-07 22:45 | 43.63735 | 1.36077 | 494 ft | 20 kts | 142° |
| 2026-05-07 22:46 | 43.63618 | 1.36199 | 486 ft | 22 kts | 143° |
| 2026-05-07 22:46 | 43.63487 | 1.36335 | 489 ft | 25 kts | 143° |
| 2026-05-07 22:46 | 43.63352 | 1.36475 | 491 ft | 19 kts | 143° |
| 2026-05-07 22:46 | 43.63266 | 1.36564 | 488 ft | 13 kts | 141° |
| 2026-05-07 22:47 | 43.63275 | 1.36683 | 483 ft | 15 kts | 66° |
| 2026-05-07 22:47 | 43.63218 | 1.36800 | 489 ft | 18 kts | 152° |
| 2026-05-07 22:47 | 43.63101 | 1.36886 | 485 ft | 21 kts | 137° |
| 2026-05-07 22:47 | 43.63030 | 1.37046 | 491 ft | 15 kts | 101° |
| 2026-05-07 22:48 | 43.62978 | 1.37169 | 486 ft | 16 kts | 141° |
| 2026-05-07 22:48 | 43.62905 | 1.37247 | 489 ft | 11 kts | 142° |
| 2026-05-07 22:48 | 43.62862 | 1.37302 | 492 ft | 6 kts | 111° |
| 2026-05-07 22:48 | 43.62884 | 1.37352 | 489 ft | 6 kts | 47° |
| 2026-05-07 22:49 | 43.62901 | 1.37378 | 491 ft | 2 kts | 47° |
| 2026-05-07 22:49 | 43.62908 | 1.37388 | 489 ft | 1 kts | 47° |
| 2026-05-07 22:49 | 43.62912 | 1.37395 | 489 ft | 0 kts | 47° |